createdAt,value
2018-05-12T00:00:43.838Z,73.20
2018-05-12T00:03:12.950Z,73.30
2018-05-12T00:05:41.961Z,73.40
2018-05-12T00:08:10.193Z,73.30
2018-05-12T00:10:39.236Z,73.70
2018-05-12T00:13:07.494Z,73.70
2018-05-12T00:15:35.753Z,73.80
2018-05-12T00:18:04.758Z,73.80
2018-05-12T00:20:32.994Z,73.70
2018-05-12T00:23:01.249Z,73.90
2018-05-12T00:25:29.487Z,74.60
2018-05-12T00:27:57.771Z,74.10
2018-05-12T00:30:26.007Z,74.10
2018-05-12T00:32:54.714Z,74.20
2018-05-12T00:35:22.954Z,74.30
2018-05-12T00:37:51.193Z,74.40
2018-05-12T00:40:19.441Z,74.30
2018-05-12T00:42:47.689Z,74.00
2018-05-12T00:45:16.210Z,74.30
2018-05-12T00:47:44.445Z,73.90
2018-05-12T00:50:12.681Z,74.00
2018-05-12T00:52:40.935Z,73.80
2018-05-12T00:55:09.174Z,73.80
2018-05-12T00:57:38.501Z,73.60
2018-05-12T01:00:06.745Z,73.50
2018-05-12T01:02:34.983Z,73.60
2018-05-12T01:05:03.233Z,73.90
2018-05-12T01:07:31.473Z,74.00
2018-05-12T01:09:59.718Z,74.10
2018-05-12T01:12:27.974Z,74.20
2018-05-12T01:14:56.213Z,74.10
2018-05-12T01:17:25.225Z,74.40
2018-05-12T01:19:53.465Z,74.20
2018-05-12T01:22:21.709Z,74.30
2018-05-12T01:24:49.966Z,74.20
2018-05-12T01:27:18.209Z,74.50
2018-05-12T01:29:47.219Z,74.40
2018-05-12T01:32:15.470Z,74.40
2018-05-12T01:34:43.722Z,74.50
2018-05-12T01:37:11.970Z,74.20
2018-05-12T01:39:40.218Z,74.90
2018-05-12T01:42:08.493Z,74.80
2018-05-12T01:44:37.511Z,75.10
2018-05-12T01:47:05.761Z,75.00
2018-05-12T01:49:34.022Z,75.20
2018-05-12T01:52:03.034Z,75.50
2018-05-12T01:54:31.514Z,75.20
2018-05-12T01:56:59.758Z,75.10
2018-05-12T01:59:28.005Z,75.00
2018-05-12T02:01:56.255Z,75.10
2018-05-12T02:04:24.495Z,75.10
2018-05-12T02:06:53.505Z,74.80
2018-05-12T02:09:21.754Z,74.40
2018-05-12T02:11:49.994Z,74.10
2018-05-12T02:14:18.469Z,73.50
2018-05-12T02:16:46.710Z,73.60
2018-05-12T02:19:15.731Z,73.50
2018-05-12T02:21:43.965Z,73.40
2018-05-12T02:24:12.978Z,73.40
2018-05-12T02:26:41.218Z,73.30
2018-05-12T02:29:09.466Z,73.20
2018-05-12T02:31:37.702Z,73.30
2018-05-12T02:34:06.698Z,73.10
2018-05-12T02:36:34.950Z,73.10
2018-05-12T02:39:04.274Z,73.80
2018-05-12T02:41:33.283Z,73.80
2018-05-12T02:44:01.518Z,73.70
2018-05-12T02:46:29.762Z,73.90
2018-05-12T02:48:58.014Z,74.00
2018-05-12T02:51:26.254Z,73.90
2018-05-12T02:53:55.572Z,74.00
2018-05-12T02:56:23.806Z,74.00
2018-05-12T02:58:52.040Z,73.90
2018-05-12T03:01:20.600Z,74.10
2018-05-12T03:03:49.593Z,74.30
2018-05-12T03:06:17.827Z,74.30
2018-05-12T03:08:46.074Z,74.30
2018-05-12T03:11:14.314Z,74.70
2018-05-12T03:13:43.321Z,74.80
2018-05-12T03:16:11.565Z,74.80
2018-05-12T03:18:39.815Z,74.80
2018-05-12T03:21:08.049Z,74.90
2018-05-12T03:23:36.314Z,74.60
2018-05-12T03:26:05.369Z,75.30
2018-05-12T03:28:33.623Z,74.50
2018-05-12T03:31:01.868Z,74.70
2018-05-12T03:33:30.114Z,74.90
2018-05-12T03:35:59.118Z,75.30
2018-05-12T03:38:28.421Z,74.80
2018-05-12T03:40:57.429Z,74.80
2018-05-12T03:43:25.670Z,74.70
2018-05-12T03:45:53.973Z,74.80
2018-05-12T03:48:22.210Z,75.00
2018-05-12T03:50:50.526Z,75.20
2018-05-12T03:53:19.522Z,75.30
2018-05-12T03:55:47.781Z,75.20
2018-05-12T03:58:16.777Z,75.20
2018-05-12T04:00:45.782Z,75.30
2018-05-12T04:03:14.035Z,75.30
2018-05-12T04:09:08.722Z,74.10
2018-05-12T04:11:54.810Z,74.20
2018-05-12T04:14:23.053Z,74.10
2018-05-12T04:16:51.306Z,73.60
2018-05-12T04:19:20.321Z,73.60
2018-05-12T04:21:48.569Z,73.50
2018-05-12T04:24:17.565Z,73.20
2018-05-12T04:26:46.566Z,72.70
2018-05-12T04:29:15.675Z,72.60
2018-05-12T04:31:44.673Z,72.30
2018-05-12T04:34:12.898Z,72.30
2018-05-12T04:36:41.133Z,72.10
2018-05-12T04:39:09.394Z,72.20
2018-05-12T04:41:37.964Z,72.20
2018-05-12T04:44:06.962Z,72.50
2018-05-12T04:46:35.194Z,72.50
2018-05-12T04:49:03.438Z,72.70
2018-05-12T04:51:31.677Z,72.70
2018-05-12T04:54:00.698Z,72.40
2018-05-12T04:56:28.926Z,72.40
2018-05-12T04:58:57.169Z,72.20
2018-05-12T05:01:25.397Z,72.30
2018-05-12T05:03:54.410Z,72.10
2018-05-12T05:06:22.646Z,72.00
2018-05-12T05:08:50.929Z,71.70
2018-05-12T05:11:19.183Z,72.60
2018-05-12T05:13:47.414Z,71.50
2018-05-12T05:16:15.978Z,71.80
2018-05-12T05:18:44.981Z,70.90
2018-05-12T05:21:13.220Z,70.90
2018-05-12T05:23:41.460Z,70.90
2018-05-12T05:26:09.797Z,70.90
2018-05-12T05:28:38.817Z,70.90
2018-05-12T05:31:07.482Z,70.80
2018-05-12T05:33:36.485Z,70.40
2018-05-12T05:36:04.755Z,70.40
2018-05-12T05:38:33.771Z,70.00
2018-05-12T05:41:02.007Z,70.00
2018-05-12T05:43:31.226Z,68.90
2018-05-12T05:46:00.214Z,68.90
2018-05-12T05:48:29.210Z,69.00
2018-05-12T05:50:57.454Z,68.80
2018-05-12T05:53:25.683Z,68.80
2018-05-12T05:55:54.249Z,68.20
2018-05-12T05:58:22.542Z,67.90
2018-05-12T06:00:50.766Z,67.90
2018-05-12T06:03:19.002Z,67.90
2018-05-12T06:05:47.439Z,67.40
2018-05-12T06:08:16.434Z,66.80
2018-05-12T06:10:45.429Z,66.90
2018-05-12T06:13:14.437Z,66.60
2018-05-12T06:15:42.681Z,66.50
2018-05-12T06:18:10.975Z,66.70
2018-05-12T06:20:39.178Z,66.80
2018-05-12T06:23:07.423Z,67.30
2018-05-12T06:25:36.430Z,67.00
2018-05-12T06:28:04.689Z,67.00
2018-05-12T06:30:33.701Z,67.00
2018-05-12T06:33:01.938Z,66.90
2018-05-12T06:35:30.185Z,67.00
2018-05-12T06:37:58.415Z,66.70
2018-05-12T06:40:27.450Z,65.70
2018-05-12T06:42:55.785Z,65.60
2018-05-12T06:45:24.297Z,65.40
2018-05-12T06:47:52.532Z,65.00
2018-05-12T06:50:21.521Z,65.40
2018-05-12T06:52:50.584Z,65.50
2018-05-12T06:55:18.770Z,65.40
2018-05-12T06:57:47.007Z,64.80
2018-05-12T07:00:15.245Z,64.40
2018-05-12T07:02:44.260Z,64.50
2018-05-12T07:05:12.551Z,64.50
2018-05-12T07:07:40.776Z,64.40
2018-05-12T07:10:09.042Z,64.40
2018-05-12T07:12:37.557Z,64.60
2018-05-12T07:15:06.602Z,64.70
2018-05-12T07:17:34.829Z,64.50
2018-05-12T07:20:03.073Z,64.20
2018-05-12T07:22:31.318Z,64.40
2018-05-12T07:24:59.547Z,64.30
2018-05-12T07:27:28.866Z,64.90
2018-05-12T07:29:57.154Z,64.90
2018-05-12T07:32:25.378Z,64.60
2018-05-12T07:34:53.625Z,64.30
2018-05-12T07:37:21.859Z,64.00
2018-05-12T07:39:50.090Z,63.50
2018-05-12T07:42:18.605Z,63.30
2018-05-12T07:44:47.605Z,65.00
2018-05-12T07:47:15.854Z,64.80
2018-05-12T07:49:44.129Z,65.00
2018-05-12T07:52:12.355Z,63.60
2018-05-12T07:54:40.594Z,64.10
2018-05-12T07:57:09.599Z,64.90
2018-05-12T07:59:38.619Z,63.70
2018-05-12T08:02:06.966Z,63.70
2018-05-12T08:04:36.214Z,62.50
2018-05-12T08:07:04.452Z,62.40
2018-05-12T08:09:32.690Z,61.00
2018-05-12T08:12:00.941Z,59.90
2018-05-12T08:14:29.182Z,58.90
2018-05-12T08:16:57.421Z,59.60
2018-05-12T08:19:25.785Z,59.40
2018-05-12T08:21:54.024Z,59.90
2018-05-12T08:24:22.283Z,59.20
2018-05-12T08:26:50.563Z,58.90
2018-05-12T08:29:18.773Z,58.30
2018-05-12T08:31:47.032Z,58.60
2018-05-12T08:34:15.284Z,59.20
2018-05-12T08:36:43.537Z,57.20
2018-05-12T08:39:12.553Z,56.50
2018-05-12T08:41:40.789Z,56.50
2018-05-12T08:44:09.045Z,55.30
2018-05-12T08:46:37.292Z,55.90
2018-05-12T08:49:05.543Z,55.30
2018-05-12T08:51:34.534Z,54.50
2018-05-12T08:54:03.555Z,52.90
2018-05-12T08:56:31.816Z,52.90
2018-05-12T08:59:00.820Z,51.70
2018-05-12T09:01:29.388Z,51.60
2018-05-12T09:03:58.399Z,50.20
2018-05-12T09:06:26.637Z,50.20
2018-05-12T09:08:54.881Z,51.10
2018-05-12T09:11:23.119Z,51.50
2018-05-12T09:13:51.374Z,51.10
2018-05-12T09:16:20.374Z,50.30
2018-05-12T09:18:49.381Z,48.80
2018-05-12T09:21:17.622Z,48.70
2018-05-12T09:23:45.866Z,46.40
2018-05-12T09:26:14.117Z,47.90
2018-05-12T09:28:42.360Z,48.40
2018-05-12T09:31:11.366Z,48.10
2018-05-12T09:33:39.606Z,48.00
2018-05-12T09:36:07.857Z,48.40
2018-05-12T09:38:36.102Z,48.10
2018-05-12T09:41:04.362Z,45.60
2018-05-12T09:43:33.361Z,47.60
2018-05-12T09:46:01.605Z,47.60
2018-05-12T09:48:29.853Z,47.90
2018-05-12T09:50:58.094Z,46.80
2018-05-12T09:53:26.330Z,47.00
2018-05-12T09:55:55.353Z,46.90
2018-05-12T09:58:24.405Z,47.90
2018-05-12T10:00:52.629Z,48.00
2018-05-12T10:03:20.893Z,46.90
2018-05-12T10:05:49.891Z,46.10
2018-05-12T10:08:18.136Z,46.00
2018-05-12T10:10:47.163Z,46.10
2018-05-12T10:13:15.409Z,45.80
2018-05-12T10:15:43.654Z,45.70
2018-05-12T10:18:11.885Z,46.10
2018-05-12T10:20:40.894Z,46.20
2018-05-12T10:23:09.127Z,46.20
2018-05-12T10:25:37.744Z,44.80
2018-05-12T10:28:06.040Z,44.70
2018-05-12T10:30:34.261Z,45.20
2018-05-12T10:33:02.498Z,43.30
2018-05-12T10:35:31.050Z,42.40
2018-05-12T10:37:59.282Z,43.80
2018-05-12T10:40:27.513Z,44.50
2018-05-12T10:42:55.757Z,43.20
2018-05-12T10:45:24.802Z,41.90
2018-05-12T10:47:53.159Z,41.90
2018-05-12T10:50:21.396Z,40.60
2018-05-12T10:52:49.624Z,41.50
2018-05-12T10:55:17.873Z,42.90
2018-05-12T10:57:46.965Z,43.00
2018-05-12T11:00:15.222Z,42.90
2018-05-12T11:02:43.465Z,42.90
2018-05-12T11:05:11.697Z,43.20
2018-05-12T11:07:39.943Z,43.50
2018-05-12T11:10:08.190Z,43.10
2018-05-12T11:12:36.438Z,41.80
2018-05-12T11:15:04.702Z,41.20
2018-05-12T11:17:32.969Z,41.90
2018-05-12T11:20:01.978Z,42.10
2018-05-12T11:22:30.230Z,42.10
2018-05-12T11:24:59.234Z,41.60
2018-05-12T11:27:27.481Z,41.60
2018-05-12T11:29:56.502Z,42.50
2018-05-12T11:32:25.510Z,43.00
2018-05-12T11:34:53.797Z,42.90
2018-05-12T11:37:22.034Z,41.90
2018-05-12T11:39:51.046Z,40.90
2018-05-12T11:42:19.294Z,40.90
2018-05-12T11:44:47.569Z,41.60
2018-05-12T11:47:15.870Z,41.20
2018-05-12T11:49:44.873Z,41.30
2018-05-12T11:52:13.112Z,41.20
2018-05-12T11:54:41.338Z,40.40
2018-05-12T11:57:09.594Z,41.40
2018-05-12T11:59:37.833Z,39.90
2018-05-12T12:02:06.073Z,40.50
2018-05-12T12:04:34.315Z,41.50
2018-05-12T12:07:02.573Z,40.90
2018-05-12T12:09:31.593Z,42.50
2018-05-12T12:11:59.845Z,42.50
2018-05-12T12:14:28.861Z,42.40
2018-05-12T12:16:57.141Z,42.30
2018-05-12T12:19:25.397Z,41.10
2018-05-12T12:21:54.416Z,42.00
2018-05-12T12:24:22.657Z,42.00
2018-05-12T12:26:51.663Z,41.40
2018-05-12T12:29:20.679Z,40.50
2018-05-12T12:31:48.906Z,40.40
2018-05-12T12:34:17.181Z,41.70
2018-05-12T12:36:45.430Z,40.10
2018-05-12T12:39:13.669Z,40.60
2018-05-12T12:41:41.915Z,41.70
2018-05-12T12:44:10.926Z,41.70
2018-05-12T12:46:39.928Z,41.00
2018-05-12T12:49:08.186Z,41.00
2018-05-12T12:51:37.272Z,41.40
2018-05-12T12:54:05.437Z,41.30
2018-05-12T12:56:33.700Z,41.90
2018-05-12T12:59:01.931Z,40.80
2018-05-12T13:01:30.307Z,41.70
2018-05-12T13:03:58.533Z,41.40
2018-05-12T13:06:26.769Z,41.10
2018-05-12T13:08:55.022Z,40.30
2018-05-12T13:11:23.265Z,39.10
2018-05-12T13:13:51.511Z,39.70
2018-05-12T13:16:19.741Z,40.70
2018-05-12T13:18:48.750Z,40.50
2018-05-12T13:21:17.002Z,40.40
2018-05-12T13:23:46.003Z,39.70
2018-05-12T13:26:15.001Z,40.30
2018-05-12T13:28:44.026Z,40.10
2018-05-12T13:31:12.582Z,39.90
2018-05-12T13:33:40.935Z,40.00
2018-05-12T13:36:09.086Z,39.70
2018-05-12T13:38:37.705Z,39.80
2018-05-12T13:41:06.722Z,40.10
2018-05-12T13:43:34.943Z,40.10
2018-05-12T13:46:03.194Z,39.50
2018-05-12T13:48:31.441Z,39.40
2018-05-12T13:50:59.676Z,39.60
2018-05-12T13:53:28.182Z,40.60
2018-05-12T13:55:57.216Z,40.60
2018-05-12T13:58:25.419Z,40.50
2018-05-12T14:00:53.967Z,39.40
2018-05-12T14:03:22.194Z,39.60
2018-05-12T14:05:50.426Z,39.40
2018-05-12T14:08:18.673Z,39.80
2018-05-12T14:10:46.912Z,39.10
2018-05-12T14:13:15.162Z,41.00
2018-05-12T14:15:43.390Z,39.60
2018-05-12T14:18:12.789Z,39.60
2018-05-12T14:20:41.793Z,39.60
2018-05-12T14:23:10.023Z,39.50
2018-05-12T14:25:38.393Z,40.10
2018-05-12T14:28:06.630Z,39.20
2018-05-12T14:30:34.869Z,39.00
2018-05-12T14:33:03.111Z,38.90
2018-05-12T14:35:31.342Z,39.80
2018-05-12T14:37:59.588Z,40.10
2018-05-12T14:40:27.817Z,39.40
2018-05-12T14:42:56.374Z,39.80
2018-05-12T14:45:24.610Z,39.70
2018-05-12T14:47:52.850Z,40.10
2018-05-12T14:50:21.398Z,39.70
2018-05-12T14:52:50.415Z,39.50
2018-05-12T14:55:18.636Z,39.50
2018-05-12T14:57:46.881Z,38.80
2018-05-12T15:00:15.332Z,39.50
2018-05-12T15:02:44.326Z,40.40
2018-05-12T15:05:12.564Z,40.40
2018-05-12T15:07:40.810Z,39.60
2018-05-12T15:10:09.046Z,39.50
2018-05-12T15:12:38.058Z,39.40
2018-05-12T15:15:06.289Z,39.40
2018-05-12T15:17:35.310Z,40.70
2018-05-12T15:20:03.558Z,40.20
2018-05-12T15:22:31.791Z,40.20
2018-05-12T15:25:00.038Z,39.70
2018-05-12T15:27:29.034Z,40.90
2018-05-12T15:29:57.274Z,40.90
2018-05-12T15:32:25.527Z,40.60
2018-05-12T15:34:53.769Z,40.00
2018-05-12T15:37:22.014Z,40.00
2018-05-12T15:39:51.010Z,39.80
2018-05-12T15:42:20.017Z,40.20
2018-05-12T15:44:49.022Z,40.60
2018-05-12T15:47:17.266Z,40.60
2018-05-12T15:49:45.506Z,40.60
2018-05-12T15:52:14.146Z,41.60
2018-05-12T15:54:43.153Z,41.90
2018-05-12T15:57:11.386Z,41.90
2018-05-12T15:59:39.631Z,41.20
2018-05-12T16:02:07.879Z,41.30
2018-05-12T16:04:36.121Z,41.50
2018-05-12T16:07:04.718Z,42.20
2018-05-12T16:09:33.723Z,41.30
2018-05-12T16:12:01.950Z,41.40
2018-05-12T16:14:30.199Z,41.30
2018-05-12T16:16:58.436Z,41.00
2018-05-12T16:19:27.456Z,41.30
2018-05-12T16:21:55.686Z,41.30
2018-05-12T16:24:23.938Z,41.00
2018-05-12T16:26:52.174Z,40.80
2018-05-12T16:29:20.421Z,41.00
2018-05-12T16:31:48.653Z,41.00
2018-05-12T16:34:16.901Z,40.60
2018-05-12T16:36:45.138Z,40.60
2018-05-12T16:39:13.373Z,40.30
2018-05-12T16:41:41.924Z,40.60
2018-05-12T16:44:10.916Z,41.20
2018-05-12T16:46:39.909Z,41.30
2018-05-12T16:49:08.153Z,41.20
2018-05-12T16:51:36.657Z,40.80
2018-05-12T16:54:05.669Z,41.00
2018-05-12T16:56:33.907Z,40.90
2018-05-12T16:59:02.280Z,41.70
2018-05-12T17:01:30.498Z,41.10
2018-05-12T17:03:58.751Z,40.40
2018-05-12T17:06:27.859Z,41.30
2018-05-12T17:08:56.789Z,40.60
2018-05-12T17:11:25.025Z,40.60
2018-05-12T17:13:53.271Z,40.30
2018-05-12T17:16:21.514Z,40.50
2018-05-12T17:18:49.746Z,40.20
2018-05-12T17:21:18.757Z,40.70
2018-05-12T17:23:46.988Z,40.70
2018-05-12T17:26:15.220Z,41.00
2018-05-12T17:28:43.457Z,41.30
2018-05-12T17:31:12.467Z,40.60
2018-05-12T17:33:40.706Z,40.60
2018-05-12T17:36:10.457Z,41.00
2018-05-12T17:38:38.703Z,41.00
2018-05-12T17:41:06.933Z,41.20
2018-05-12T17:43:35.181Z,41.40
2018-05-12T17:46:03.430Z,41.30
2018-05-12T17:48:32.431Z,41.60
2018-05-12T17:51:01.445Z,41.60
2018-05-12T17:53:29.694Z,41.50
2018-05-12T17:55:58.689Z,42.80
2018-05-12T17:58:27.702Z,43.20
2018-05-12T18:00:55.938Z,43.20
2018-05-12T18:03:24.555Z,43.80
2018-05-12T18:05:53.558Z,44.10
2018-05-12T18:08:21.802Z,44.00
2018-05-12T18:10:50.050Z,44.20
2018-05-12T18:13:18.288Z,45.00
2018-05-12T18:15:46.522Z,44.40
2018-05-12T18:18:16.282Z,44.70
2018-05-12T18:20:44.506Z,44.70
2018-05-12T18:23:12.870Z,44.90
2018-05-12T18:25:41.911Z,45.40
2018-05-12T18:28:10.921Z,45.70
2018-05-12T18:30:39.153Z,45.60
2018-05-12T18:33:07.405Z,45.90
2018-05-12T18:35:35.638Z,46.30
2018-05-12T18:38:03.874Z,46.30
2018-05-12T18:40:32.885Z,46.70
2018-05-12T18:43:01.138Z,46.70
2018-05-12T18:45:29.373Z,47.00
2018-05-12T18:47:57.661Z,47.70
2018-05-12T18:50:25.910Z,48.40
2018-05-12T18:52:54.146Z,48.90
2018-05-12T18:55:22.375Z,48.90
2018-05-12T18:57:50.937Z,49.40
2018-05-12T19:00:19.930Z,49.40
2018-05-12T19:02:48.167Z,49.30
2018-05-12T19:05:17.177Z,50.00
2018-05-12T19:07:46.189Z,50.10
2018-05-12T19:10:14.453Z,50.00
2018-05-12T19:12:43.454Z,50.80
2018-05-12T19:15:12.445Z,50.80
2018-05-12T19:17:41.469Z,51.10
2018-05-12T19:20:09.714Z,51.00
2018-05-12T19:22:38.718Z,51.60
2018-05-12T19:25:06.945Z,51.50
2018-05-12T19:27:35.191Z,51.70
2018-05-12T19:30:03.437Z,51.90
2018-05-12T19:32:32.627Z,52.30
2018-05-12T19:35:01.638Z,52.80
2018-05-12T19:37:29.869Z,52.70
2018-05-12T19:39:59.610Z,52.60
2018-05-12T19:42:28.617Z,52.60
2018-05-12T19:44:56.853Z,52.50
2018-05-12T19:47:25.082Z,52.60
2018-05-12T19:49:53.333Z,52.70
2018-05-12T19:52:21.577Z,52.80
2018-05-12T19:54:49.823Z,53.40
2018-05-12T19:57:18.070Z,53.70
2018-05-12T19:59:46.310Z,53.50
2018-05-12T20:02:14.637Z,53.70
2018-05-12T20:04:42.874Z,54.10
2018-05-12T20:07:11.879Z,54.00
2018-05-12T20:09:40.874Z,53.90
2018-05-12T20:12:09.225Z,53.90
2018-05-12T20:14:37.502Z,53.90
2018-05-12T20:17:05.749Z,54.10
2018-05-12T20:19:34.004Z,54.40
2018-05-12T20:22:02.277Z,54.80
2018-05-12T20:24:30.506Z,54.40
2018-05-12T20:26:58.750Z,54.90
2018-05-12T20:29:27.107Z,54.90
2018-05-12T20:31:55.358Z,55.10
2018-05-12T20:34:24.438Z,54.70
2018-05-12T20:36:53.525Z,54.90
2018-05-12T20:39:21.920Z,54.90
2018-05-12T20:41:50.923Z,55.10
2018-05-12T20:44:19.168Z,55.10
2018-05-12T20:46:48.198Z,55.60
2018-05-12T20:49:16.517Z,55.50
2018-05-12T20:51:45.191Z,55.60
2018-05-12T20:54:13.426Z,55.80
2018-05-12T20:56:42.448Z,56.40
2018-05-12T20:59:11.003Z,56.30
2018-05-12T21:01:39.299Z,56.40
2018-05-12T21:04:07.521Z,56.40
2018-05-12T21:06:35.809Z,56.80
2018-05-12T21:09:04.058Z,56.60
2018-05-12T21:11:32.305Z,56.20
2018-05-12T21:14:00.591Z,56.90
2018-05-12T21:16:28.842Z,56.90
2018-05-12T21:18:57.084Z,56.90
2018-05-12T21:21:25.329Z,57.20
2018-05-12T21:23:53.587Z,57.10
2018-05-12T21:26:21.805Z,56.80
2018-05-12T21:28:50.065Z,57.20
2018-05-12T21:31:18.314Z,57.10
2018-05-12T21:33:46.554Z,57.40
2018-05-12T21:36:15.582Z,57.30
2018-05-12T21:38:43.810Z,57.30
2018-05-12T21:41:12.842Z,57.70
2018-05-12T21:43:41.086Z,57.70
2018-05-12T21:46:10.172Z,57.80
2018-05-12T21:48:38.669Z,57.80
2018-05-12T21:51:07.739Z,58.20
2018-05-12T21:53:36.804Z,58.00
2018-05-12T21:56:05.418Z,58.00
2018-05-12T21:58:33.702Z,58.10
2018-05-12T22:01:02.772Z,58.80
2018-05-12T22:03:31.069Z,58.80
2018-05-12T22:05:59.358Z,58.70
2018-05-12T22:08:28.424Z,58.90
2018-05-12T22:10:56.701Z,58.90
2018-05-12T22:13:25.014Z,58.90
2018-05-12T22:15:53.336Z,59.10
2018-05-12T22:18:21.621Z,59.10
2018-05-12T22:20:49.922Z,59.00
2018-05-12T22:23:19.613Z,59.10
2018-05-12T22:25:47.922Z,59.10
2018-05-12T22:28:16.974Z,59.50
2018-05-12T22:30:45.222Z,59.40
2018-05-12T22:33:13.452Z,59.60
2018-05-12T22:35:41.689Z,59.70
2018-05-12T22:38:09.922Z,59.80
2018-05-12T22:40:38.934Z,60.20
2018-05-12T22:43:07.182Z,60.00
2018-05-12T22:45:36.186Z,60.20
2018-05-12T22:48:05.183Z,60.20
2018-05-12T22:50:34.486Z,60.10
2018-05-12T22:53:03.483Z,60.40
2018-05-12T22:55:31.745Z,60.30
2018-05-12T22:58:00.758Z,60.60
2018-05-12T23:00:28.989Z,60.40
2018-05-12T23:02:57.234Z,60.80
2018-05-12T23:05:25.463Z,60.80
2018-05-12T23:07:54.474Z,61.00
2018-05-12T23:10:22.718Z,61.00
2018-05-12T23:12:50.966Z,61.20
2018-05-12T23:15:19.216Z,61.50
2018-05-12T23:17:47.452Z,61.50
2018-05-12T23:20:16.457Z,62.80
2018-05-12T23:22:48.314Z,61.90
2018-05-12T23:25:17.311Z,62.20
2018-05-12T23:27:46.322Z,62.30
2018-05-12T23:30:14.554Z,62.40
2018-05-12T23:32:42.799Z,62.50
2018-05-12T23:35:11.026Z,62.80
2018-05-12T23:37:40.038Z,62.80
2018-05-12T23:40:08.270Z,63.70
2018-05-12T23:42:36.502Z,62.90
2018-05-12T23:45:04.749Z,62.80
2018-05-12T23:47:33.845Z,63.30
2018-05-12T23:50:02.847Z,63.50
2018-05-12T23:52:31.134Z,63.50
2018-05-12T23:54:59.499Z,63.40
2018-05-12T23:57:27.738Z,63.70
2018-05-12T23:59:55.969Z,63.70
